Mexico, MO

6:11 PM CDT on September 23, 2014 (GMT -0500)
Viertel Memorial | Change Station
CLOSE
Current Station
Airport
Location: Boonville,
Elevation: 715 ft
Nearby Weather Stations

Elev 715 ft 38.95 °N, 92.68 °W | Updated 16 minutes ago

Partly Cloudy
Partly Cloudy
72 °F
Feels Like 72 °F
N
0
Wind Variable Wind from North

Today
High -- | Low -- °F
--% Chance of Precip.
Yesterday
High -- | Low -- °F
Precip. -- in
6:56 AM 7:02 PM
Waning Crescent, 0% visible
Pressure 30.19 in
Visibility 10.0 miles
Clouds Clear
Dew Point 47 °F
Humidity 40%
Rainfall 0.00 in
Snow Depth Not available.
UV 1 out of 12
Pollen 5.70 out of 12
Air Quality Not available.
Flu Activity Not available.
METAR KVER 232255Z AUTO 00000KT 10SM CLR 22/08 A3019 RMK AO2 LTG DSNT W T02240082

More Conditions Fewer Conditions

Pressure 30.19 in
Visibility 10.0 miles
Clouds Clear
Dew Point 47 °F
Humidity 40%
Rainfall 0.00 in
Snow Depth Not available.
UV 1 out of 12
Pollen 5.70 out of 12
Air Quality Not available.
Flu Activity Not available.
METAR KVER 232255Z AUTO 00000KT 10SM CLR 22/08 A3019 RMK AO2 LTG DSNT W T02240082

More Conditions Fewer Conditions

10-Day Weather Forecast

Almanac

Astronomy

Sep. 23, 2014 Rise Set
Actual Time 6:56 AM CDT 7:02 PM CDT
Civil Twilight 6:29 AM CDT 7:29 PM CDT
Nautical Twilight 5:58 AM CDT 8:00 PM CDT
Astronomical Twilight 5:26 AM CDT 8:32 PM CDT
Moon 6:20 AM CDT 6:42 PM CDT
Length of Visible Light 13h 00m
Length of Day
12h 06m
Tomorrow will be 2m 32s shorter.
Waning Crescent, 0% of the Moon is Illuminated
Today
Waning Crescent
Sep 24
New
Oct 1
First Quarter
Oct 8
Full
Oct 15
Last Quarter

Today's Extremes

State Highs State Lows

Community

WunderPhotos

Upload Photos

1,755,824 photos uploaded!

WunderBlogs® & News

Nearby

Snow Depth

Station Depth Elevation
No new snow has been reported.

Earthquake Activity

City Distance Mag. Time & Date
No recent earthquake activity has been reported nearby.
Minimum magnitude displayed is 2.5.

Coastal Water Temperatures

Place Temperature
No Stations Reporting

Nearby Weather Stations